Time;durP1;ratioP1;P1;durP2;ratioP2;P2;SDS_P1;SDS_P2;PMS_P1;PMS_P2;Temp;Humidity;BMP_temperature;BMP_pressure;BME280_temperature;BME280_humidity;BME280_pressure;Samples;Min_cycle;Max_cycle;Signal;HPM_P1;HPM_P2
2022/12/01 00:00:43;;;;;;;5.32;2.42;;;4.00;99.90;;;;;;5062528;28;20200;-72
2022/12/01 00:03:09;;;;;;;3.88;2.60;;;4.00;99.90;;;;;;5056299;28;20233;-71
2022/12/01 00:05:37;;;;;;;2.00;1.90;;;4.00;99.90;;;;;;5067091;28;20765;-72
2022/12/01 00:08:04;;;;;;;2.55;1.77;;;4.00;99.90;;;;;;5047415;28;20210;-72
2022/12/01 00:10:31;;;;;;;5.55;2.28;;;4.00;99.90;;;;;;5048916;28;20203;-72
2022/12/01 00:13:00;;;;;;;3.25;2.45;;;4.00;99.90;;;;;;5049318;28;20199;-72
2022/12/01 00:15:28;;;;;;;3.08;2.80;;;4.10;99.90;;;;;;5063912;28;20215;-72
2022/12/01 00:17:57;;;;;;;3.03;2.17;;;3.90;99.90;;;;;;5055533;28;20733;-72
2022/12/01 00:20:24;;;;;;;2.42;1.70;;;4.00;99.90;;;;;;5048511;28;20196;-71
2022/12/01 00:22:51;;;;;;;7.38;3.63;;;4.00;99.90;;;;;;5050278;28;20227;-72
2022/12/01 00:25:19;;;;;;;2.25;1.90;;;3.90;99.90;;;;;;5052658;28;20202;-72
2022/12/01 00:27:48;;;;;;;6.47;3.92;;;3.90;99.90;;;;;;5058536;28;20688;-72
2022/12/01 00:30:16;;;;;;;1.65;1.55;;;3.90;99.90;;;;;;5058751;28;20212;-72
2022/12/01 00:32:43;;;;;;;8.85;3.10;;;4.00;99.90;;;;;;5054502;28;20184;-72
2022/12/01 00:35:12;;;;;;;4.15;2.80;;;3.90;99.90;;;;;;5052304;28;20202;-72
2022/12/01 00:37:38;;;;;;;6.03;3.28;;;3.90;99.90;;;;;;5064288;28;20548;-72
2022/12/01 00:40:07;;;;;;;3.00;1.27;;;3.90;99.90;;;;;;5067279;28;20674;-72
2022/12/01 00:42:34;;;;;;;11.35;3.15;;;4.00;99.90;;;;;;5050920;28;20202;-71
2022/12/01 00:45:01;;;;;;;3.63;2.97;;;3.90;99.90;;;;;;5067535;28;20199;-71
2022/12/01 00:47:27;;;;;;;13.80;3.50;;;4.00;99.90;;;;;;5054952;28;20574;-72
2022/12/01 00:49:54;;;;;;;4.80;4.07;;;4.00;99.90;;;;;;5047134;28;20196;-71
2022/12/01 00:52:22;;;;;;;2.58;2.38;;;3.90;99.90;;;;;;5050225;28;20206;-72
2022/12/01 00:54:49;;;;;;;5.47;3.67;;;3.90;99.90;;;;;;5067752;28;20210;-72
2022/12/01 00:57:16;;;;;;;7.20;4.45;;;4.00;99.90;;;;;;5053197;28;20266;-72
2022/12/01 00:59:42;;;;;;;7.47;4.38;;;4.00;99.90;;;;;;5065682;28;20197;-72
2022/12/01 01:02:09;;;;;;;3.30;1.73;;;4.00;99.90;;;;;;5058638;28;20200;-72
2022/12/01 01:04:36;;;;;;;3.10;2.90;;;3.90;99.90;;;;;;5063157;28;20223;-72
2022/12/01 01:07:03;;;;;;;2.85;2.65;;;3.90;99.90;;;;;;5071081;28;20205;-71
2022/12/01 01:09:33;;;;;;;3.63;2.08;;;4.00;99.90;;;;;;5054042;28;20215;-72
2022/12/01 01:11:59;;;;;;;3.35;2.08;;;3.90;99.90;;;;;;5056315;28;20711;-72
2022/12/01 01:14:26;;;;;;;2.20;1.52;;;4.00;99.90;;;;;;5063351;28;20209;-71
2022/12/01 01:16:55;;;;;;;2.13;0.95;;;3.90;99.90;;;;;;5064519;28;20202;-71
2022/12/01 01:19:22;;;;;;;11.48;3.40;;;3.90;99.90;;;;;;5065279;28;20675;-72
2022/12/01 01:21:49;;;;;;;2.58;2.38;;;3.90;99.90;;;;;;5062638;28;20191;-72
2022/12/01 01:24:16;;;;;;;5.20;3.67;;;4.00;99.90;;;;;;5070869;28;20836;-72
2022/12/01 01:26:44;;;;;;;3.33;3.03;;;4.00;99.90;;;;;;5068984;28;20278;-72
2022/12/01 01:29:11;;;;;;;8.63;3.55;;;3.90;99.90;;;;;;5057416;28;20195;-71
2022/12/01 01:31:38;;;;;;;3.13;2.08;;;4.00;99.90;;;;;;5060300;28;20732;-72
2022/12/01 01:34:05;;;;;;;4.47;2.58;;;4.00;99.90;;;;;;5066901;28;20270;-72
2022/12/01 01:36:32;;;;;;;5.75;3.78;;;4.00;99.90;;;;;;5066322;28;20203;-71
2022/12/01 01:39:00;;;;;;;6.60;2.67;;;4.10;99.90;;;;;;5058235;28;20205;-72
2022/12/01 01:41:27;;;;;;;10.15;5.45;;;4.00;99.90;;;;;;5067897;28;20210;-72
2022/12/01 01:43:57;;;;;;;4.72;2.45;;;4.00;99.90;;;;;;5053075;28;20218;-72
2022/12/01 01:46:26;;;;;;;3.15;2.00;;;4.00;99.90;;;;;;5056716;28;20283;-72
2022/12/01 01:48:56;;;;;;;3.53;2.80;;;3.90;99.90;;;;;;5070664;28;20215;-72
2022/12/01 01:51:27;;;;;;;3.05;2.83;;;4.00;99.90;;;;;;5068785;28;20191;-72
2022/12/01 01:53:58;;;;;;;4.70;4.15;;;4.10;99.90;;;;;;5070329;28;20199;-71
2022/12/01 01:56:25;;;;;;;7.07;2.53;;;4.00;99.90;;;;;;5066823;28;20195;-71
2022/12/01 01:58:52;;;;;;;3.05;1.90;;;4.00;99.90;;;;;;5067787;28;20691;-72
2022/12/01 02:01:21;;;;;;;3.00;2.78;;;3.90;99.90;;;;;;5059752;28;20192;-71
2022/12/01 02:03:49;;;;;;;3.63;2.55;;;3.90;99.90;;;;;;5057243;28;20215;-72
2022/12/01 02:06:16;;;;;;;4.85;3.42;;;3.90;99.90;;;;;;5066812;28;20783;-71
2022/12/01 02:08:44;;;;;;;4.00;2.85;;;3.90;99.90;;;;;;5061218;28;20666;-71
2022/12/01 02:11:47;;;;;;;2.78;1.67;;;4.00;99.90;;;;;;5049925;28;20578;-72
2022/12/01 02:14:33;;;;;;;4.43;4.00;;;4.00;99.90;;;;;;5050202;28;20196;-72
2022/12/01 02:17:15;;;;;;;6.07;2.65;;;4.00;99.90;;;;;;5056969;28;20195;-72
2022/12/01 02:20:04;;;;;;;3.33;2.47;;;3.90;99.90;;;;;;5069906;28;20670;-72
2022/12/01 02:22:48;;;;;;;5.93;1.63;;;3.90;99.90;;;;;;5038358;28;20216;-72
2022/12/01 02:25:23;;;;;;;4.15;2.97;;;3.90;99.90;;;;;;5066426;28;20222;-71
2022/12/01 02:28:21;;;;;;;4.28;2.60;;;3.80;99.90;;;;;;5054990;28;20196;-72
2022/12/01 02:30:53;;;;;;;5.97;2.55;;;3.80;99.90;;;;;;5052219;28;20307;-72
2022/12/01 02:33:26;;;;;;;4.20;2.67;;;3.80;99.90;;;;;;5057942;28;20214;-72
2022/12/01 02:36:01;;;;;;;2.45;2.25;;;3.70;99.90;;;;;;5048913;28;20199;-72
2022/12/01 02:38:34;;;;;;;2.97;2.67;;;3.70;99.90;;;;;;5048733;28;20203;-72
2022/12/01 02:41:10;;;;;;;4.50;2.40;;;3.60;99.90;;;;;;5049560;28;20265;-72
2022/12/01 02:43:44;;;;;;;4.80;2.95;;;3.70;99.90;;;;;;5049406;28;20227;-71
2022/12/01 02:46:18;;;;;;;9.50;4.78;;;3.70;99.90;;;;;;5049206;28;20227;-72
2022/12/01 02:48:51;;;;;;;7.85;3.20;;;3.70;99.90;;;;;;5061553;28;20672;-72
2022/12/01 02:51:24;;;;;;;3.03;1.50;;;3.70;99.90;;;;;;5067024;28;20207;-73
2022/12/01 02:53:53;;;;;;;7.88;4.10;;;3.70;99.90;;;;;;5056727;28;20206;-72
2022/12/01 02:56:23;;;;;;;5.75;2.92;;;3.70;99.90;;;;;;5050361;28;20192;-71
2022/12/01 02:58:50;;;;;;;9.27;3.33;;;3.80;99.90;;;;;;5050420;28;20697;-72
2022/12/01 03:01:43;;;;;;;2.72;2.40;;;3.80;99.90;;;;;;5065992;28;20624;-72
2022/12/01 03:04:44;;;;;;;6.15;2.70;;;3.70;99.90;;;;;;5063301;28;20223;-72
2022/12/01 03:07:25;;;;;;;5.28;2.45;;;3.80;99.90;;;;;;5053794;28;20720;-72
2022/12/01 03:10:01;;;;;;;2.70;1.60;;;3.90;99.90;;;;;;5055126;28;20543;-71
2022/12/01 03:12:35;;;;;;;1.60;1.50;;;3.90;99.90;;;;;;5059578;28;20230;-71
2022/12/01 03:15:09;;;;;;;8.05;2.22;;;3.90;99.90;;;;;;5067806;28;20321;-72
2022/12/01 03:17:47;;;;;;;5.45;1.60;;;3.70;99.90;;;;;;5052614;28;20823;-72
2022/12/01 03:20:20;;;;;;;2.45;1.65;;;3.70;99.90;;;;;;5053715;28;20202;-72
2022/12/01 03:22:51;;;;;;;2.22;1.42;;;3.70;99.90;;;;;;5064171;28;20822;-72
2022/12/01 03:25:21;;;;;;;10.25;3.75;;;3.70;99.90;;;;;;5050016;28;20322;-71
2022/12/01 03:27:55;;;;;;;6.55;2.40;;;3.70;99.90;;;;;;5049649;28;20204;-72
2022/12/01 03:30:24;;;;;;;5.00;3.03;;;3.70;99.90;;;;;;5062396;28;20302;-72
2022/12/01 03:32:59;;;;;;;3.72;2.03;;;3.60;99.90;;;;;;5066721;28;20195;-71
2022/12/01 03:35:33;;;;;;;2.95;2.17;;;3.60;99.90;;;;;;5065979;28;20256;-71
2022/12/01 03:38:06;;;;;;;3.28;1.88;;;3.50;99.90;;;;;;5051789;28;20608;-72
2022/12/01 03:40:37;;;;;;;4.35;2.67;;;3.50;99.90;;;;;;5065423;28;20195;-72
2022/12/01 03:43:09;;;;;;;4.10;1.80;;;3.60;99.90;;;;;;5054957;28;20192;-71
2022/12/01 03:45:46;;;;;;;4.40;2.72;;;3.50;99.90;;;;;;5051878;28;20335;-72
2022/12/01 03:48:15;;;;;;;11.82;2.88;;;3.40;99.90;;;;;;5052576;28;20192;-72
2022/12/01 03:50:55;;;;;;;4.32;1.42;;;3.40;99.90;;;;;;5049339;28;20249;-72
2022/12/01 03:53:26;;;;;;;3.50;2.53;;;3.40;99.90;;;;;;5067382;28;20195;-72
2022/12/01 03:56:01;;;;;;;9.07;1.55;;;3.50;99.90;;;;;;5059344;28;20651;-72
2022/12/01 03:58:34;;;;;;;2.50;2.40;;;3.50;99.90;;;;;;5050780;28;20769;-72
2022/12/01 04:01:03;;;;;;;3.33;1.42;;;3.50;99.90;;;;;;5061769;28;20802;-72
2022/12/01 04:03:33;;;;;;;3.20;2.83;;;3.50;99.90;;;;;;5048747;28;20204;-72
2022/12/01 04:06:01;;;;;;;11.25;2.58;;;3.50;99.90;;;;;;5058642;28;20560;-72
2022/12/01 04:08:29;;;;;;;3.50;1.95;;;3.50;99.90;;;;;;5052060;28;20211;-72
2022/12/01 04:10:56;;;;;;;3.72;2.42;;;3.40;99.90;;;;;;5049100;28;20200;-72
2022/12/01 04:13:22;;;;;;;2.78;2.10;;;3.40;99.90;;;;;;5049242;28;20204;-72
2022/12/01 04:15:50;;;;;;;1.57;1.47;;;3.50;99.90;;;;;;5052626;28;20207;-71
2022/12/01 04:18:17;;;;;;;5.20;3.92;;;3.40;99.90;;;;;;5066126;28;20636;-72
2022/12/01 04:20:46;;;;;;;1.65;1.55;;;3.50;99.90;;;;;;5055996;28;20224;-72
2022/12/01 04:23:58;;;;;;;2.55;2.35;;;3.50;99.90;;;;;;5048962;28;20200;-72
2022/12/01 04:26:01;;;;;;;2.65;2.38;;;3.50;99.90;;;;;;5062499;28;20581;-72
2022/12/01 04:28:28;;;;;;;4.65;4.32;;;3.40;99.90;;;;;;5063745;28;20278;-71
2022/12/01 04:30:55;;;;;;;5.03;2.92;;;3.50;99.90;;;;;;5053952;28;20231;-72
2022/12/01 04:33:22;;;;;;;2.38;1.70;;;3.50;99.90;;;;;;5061820;28;20733;-72
2022/12/01 04:35:58;;;;;;;4.65;1.67;;;3.50;99.90;;;;;;5068781;28;20209;-71
2022/12/01 04:38:25;;;;;;;3.35;2.05;;;3.50;99.90;;;;;;5051511;28;20207;-72
2022/12/01 04:40:52;;;;;;;9.02;3.08;;;3.50;99.90;;;;;;5051159;28;20192;-72
2022/12/01 04:43:19;;;;;;;3.08;2.75;;;3.50;99.90;;;;;;5051116;28;20212;-72
2022/12/01 04:45:46;;;;;;;5.88;3.13;;;3.70;99.90;;;;;;5051682;28;20231;-71
2022/12/01 04:48:12;;;;;;;8.35;2.88;;;3.40;99.90;;;;;;5051163;28;20226;-71
2022/12/01 04:50:40;;;;;;;4.60;2.15;;;3.40;99.90;;;;;;5051214;28;20283;-72
2022/12/01 04:53:08;;;;;;;5.55;2.38;;;3.40;99.90;;;;;;5051292;28;20206;-72
2022/12/01 04:55:37;;;;;;;5.03;3.00;;;3.40;99.90;;;;;;5050631;28;20206;-72
2022/12/01 04:58:04;;;;;;;2.25;2.15;;;3.40;99.90;;;;;;5051009;28;20265;-72
2022/12/01 05:00:32;;;;;;;1.95;1.85;;;3.40;99.90;;;;;;5049877;28;20200;-71
2022/12/01 05:02:59;;;;;;;6.45;4.05;;;3.30;99.90;;;;;;5051144;28;20202;-71
2022/12/01 05:05:26;;;;;;;3.15;2.53;;;3.30;99.90;;;;;;5051442;28;20235;-72
2022/12/01 05:07:52;;;;;;;4.72;1.77;;;3.30;99.90;;;;;;5050342;28;20211;-72
2022/12/01 05:10:20;;;;;;;1.50;1.40;;;3.30;99.90;;;;;;5064926;28;20201;-72
2022/12/01 05:12:47;;;;;;;4.47;1.92;;;3.30;99.90;;;;;;5050339;28;20204;-71
2022/12/01 05:15:14;;;;;;;10.45;4.75;;;3.30;99.90;;;;;;5050951;28;20282;-71
2022/12/01 05:17:41;;;;;;;6.43;2.35;;;3.30;99.90;;;;;;5061363;28;20195;-71
2022/12/01 05:22:58;;;;;;;4.32;2.13;;;3.30;99.90;;;;;;5065066;28;20562;-72
2022/12/01 05:25:26;;;;;;;4.60;1.50;;;3.30;99.90;;;;;;5052022;28;20242;-72
2022/12/01 05:27:52;;;;;;;2.85;1.80;;;3.20;99.90;;;;;;5065294;28;20192;-72
2022/12/01 05:30:19;;;;;;;1.58;1.45;;;3.30;99.90;;;;;;5070704;28;20199;-72
2022/12/01 05:32:46;;;;;;;3.92;2.75;;;3.30;99.90;;;;;;5065661;28;20199;-71
2022/12/01 05:35:13;;;;;;;3.10;2.45;;;3.20;99.90;;;;;;5060238;28;20201;-72
2022/12/01 05:37:40;;;;;;;3.50;2.58;;;3.20;99.90;;;;;;5057817;28;20741;-71
2022/12/01 05:40:08;;;;;;;1.63;1.52;;;3.20;99.90;;;;;;5065519;28;20800;-72
2022/12/01 05:42:36;;;;;;;2.35;2.20;;;3.30;99.90;;;;;;5061156;28;20229;-71
2022/12/01 05:45:03;;;;;;;2.85;2.00;;;3.20;99.90;;;;;;5058278;28;20243;-71
2022/12/01 05:47:30;;;;;;;8.65;3.05;;;3.30;99.90;;;;;;5067587;28;20196;-71
2022/12/01 05:49:56;;;;;;;5.07;2.30;;;3.30;99.90;;;;;;5058626;28;20290;-71
2022/12/01 05:52:23;;;;;;;9.52;5.10;;;3.30;99.90;;;;;;5069766;28;20197;-71
2022/12/01 05:54:50;;;;;;;6.47;3.28;;;3.30;99.90;;;;;;5062646;28;20200;-71
2022/12/01 05:57:17;;;;;;;7.55;3.42;;;3.30;99.90;;;;;;5060955;28;20212;-71
2022/12/01 05:59:45;;;;;;;4.07;2.28;;;3.30;99.90;;;;;;5064202;28;20200;-71
2022/12/01 06:02:12;;;;;;;10.93;4.25;;;3.30;99.90;;;;;;5060814;28;20198;-71
2022/12/01 06:04:38;;;;;;;4.30;3.15;;;3.30;99.90;;;;;;5057505;28;20234;-71
2022/12/01 06:07:05;;;;;;;8.40;2.95;;;3.30;99.90;;;;;;5059857;28;20202;-71
2022/12/01 06:09:32;;;;;;;4.45;2.40;;;3.40;99.90;;;;;;5061026;28;20195;-71
2022/12/01 06:11:59;;;;;;;2.25;2.08;;;3.40;99.90;;;;;;5058582;28;20198;-71
2022/12/01 06:14:25;;;;;;;4.82;2.50;;;3.40;99.90;;;;;;5058431;28;20809;-71
2022/12/01 06:16:53;;;;;;;7.03;5.10;;;3.30;99.90;;;;;;5057782;28;20207;-71
2022/12/01 06:19:20;;;;;;;3.00;2.72;;;3.30;99.90;;;;;;5059436;28;20207;-71
2022/12/01 06:21:47;;;;;;;6.68;3.10;;;3.30;99.90;;;;;;5057909;28;20570;-71
2022/12/01 06:24:14;;;;;;;5.55;4.15;;;3.30;99.90;;;;;;5060315;28;20538;-72
2022/12/01 06:26:41;;;;;;;5.18;4.03;;;3.30;99.90;;;;;;5056449;28;20191;-71
2022/12/01 06:29:14;;;;;;;5.07;1.83;;;3.30;99.90;;;;;;5059370;28;20204;-73
2022/12/01 06:31:41;;;;;;;2.97;2.67;;;3.30;99.90;;;;;;5057317;28;20217;-72
2022/12/01 06:34:10;;;;;;;3.58;2.60;;;3.80;99.90;;;;;;5054206;28;20558;-71
2022/12/01 06:36:36;;;;;;;6.07;3.45;;;3.10;99.90;;;;;;5056931;28;20295;-70
2022/12/01 06:39:07;;;;;;;3.78;1.80;;;3.30;99.90;;;;;;5058222;28;20203;-72
2022/12/01 06:41:33;;;;;;;5.25;3.03;;;3.30;99.90;;;;;;5060812;28;20215;-70
2022/12/01 06:44:01;;;;;;;9.20;5.00;;;3.30;99.90;;;;;;5055563;28;20203;-71
2022/12/01 06:46:28;;;;;;;7.90;6.82;;;3.30;99.90;;;;;;5057938;28;20698;-74
2022/12/01 06:48:55;;;;;;;5.07;3.05;;;3.30;99.90;;;;;;5060733;28;20210;-71
2022/12/01 06:51:23;;;;;;;10.13;3.70;;;3.20;99.90;;;;;;5057776;28;20188;-71
2022/12/01 06:53:53;;;;;;;5.05;4.63;;;3.20;99.90;;;;;;5057925;28;20565;-71
2022/12/01 06:56:20;;;;;;;10.32;2.60;;;3.10;99.90;;;;;;5047671;28;20562;-72
2022/12/01 06:58:48;;;;;;;3.50;2.20;;;3.20;99.90;;;;;;5047255;28;20200;-71
2022/12/01 07:01:15;;;;;;;5.55;2.78;;;3.30;99.90;;;;;;5048147;28;20200;-71
2022/12/01 07:03:43;;;;;;;8.23;2.92;;;3.30;99.90;;;;;;5048732;28;20674;-70
2022/12/01 07:06:10;;;;;;;3.58;2.80;;;3.20;99.90;;;;;;5048043;28;20250;-70
2022/12/01 07:08:38;;;;;;;3.50;2.95;;;3.20;99.90;;;;;;5048194;28;20196;-70
2022/12/01 07:11:07;;;;;;;5.00;2.72;;;3.10;99.90;;;;;;5048307;28;20204;-70
2022/12/01 07:13:34;;;;;;;6.00;2.88;;;3.20;99.90;;;;;;5048016;28;20204;-71
2022/12/01 07:16:01;;;;;;;2.58;2.25;;;3.20;99.90;;;;;;5048769;28;20204;-71
2022/12/01 07:18:28;;;;;;;9.80;2.10;;;3.20;99.90;;;;;;5060574;28;20204;-72
2022/12/01 07:20:59;;;;;;;2.42;2.17;;;3.20;99.90;;;;;;5054508;28;20317;-70
2022/12/01 07:23:26;;;;;;;3.55;2.80;;;3.20;99.90;;;;;;5055197;28;20588;-71
2022/12/01 07:26:00;;;;;;;5.45;3.38;;;3.30;99.90;;;;;;5058335;28;20226;-71
2022/12/01 07:28:27;;;;;;;2.97;2.08;;;3.20;99.90;;;;;;5057816;28;20206;-71
2022/12/01 07:30:54;;;;;;;8.95;2.38;;;3.20;99.90;;;;;;5055673;28;20195;-71
2022/12/01 07:33:21;;;;;;;5.00;2.97;;;3.20;99.90;;;;;;5061117;28;20196;-72
2022/12/01 07:35:47;;;;;;;6.75;3.95;;;3.20;99.90;;;;;;5061462;28;20204;-71
2022/12/01 07:38:14;;;;;;;3.22;1.90;;;3.20;99.90;;;;;;5057846;28;20192;-71
2022/12/01 07:40:41;;;;;;;8.55;2.67;;;3.20;99.90;;;;;;5048353;28;20212;-71
2022/12/01 07:43:09;;;;;;;4.90;2.65;;;3.20;99.90;;;;;;5062555;28;20199;-72
2022/12/01 07:45:36;;;;;;;3.72;2.45;;;3.20;99.90;;;;;;5066065;28;20226;-71
2022/12/01 07:48:03;;;;;;;3.25;2.65;;;3.20;99.90;;;;;;5055206;28;20415;-71
2022/12/01 07:50:29;;;;;;;8.93;4.25;;;3.20;99.90;;;;;;5051465;28;20191;-71
2022/12/01 07:52:56;;;;;;;3.38;3.10;;;3.20;99.90;;;;;;5058645;28;20581;-71
2022/12/01 07:55:23;;;;;;;10.65;6.82;;;3.10;99.90;;;;;;5053962;28;20755;-71
2022/12/01 07:57:50;;;;;;;4.03;3.50;;;3.20;99.90;;;;;;5054300;28;20992;-71
2022/12/01 08:00:18;;;;;;;3.10;2.40;;;3.10;99.90;;;;;;5060951;28;20207;-71
2022/12/01 08:02:48;;;;;;;9.32;5.60;;;3.10;99.90;;;;;;5053604;28;21013;-72
2022/12/01 08:05:15;;;;;;;5.13;3.50;;;2.90;99.90;;;;;;5047998;28;20243;-71
2022/12/01 08:07:41;;;;;;;4.72;3.13;;;2.90;99.90;;;;;;5047945;28;20223;-71
2022/12/01 08:10:09;;;;;;;4.57;2.63;;;3.10;99.90;;;;;;5060357;28;20200;-71
2022/12/01 08:12:36;;;;;;;2.63;2.42;;;3.10;99.90;;;;;;5054246;28;20213;-71
2022/12/01 08:15:02;;;;;;;3.20;2.22;;;3.20;99.90;;;;;;5072577;28;20195;-71
2022/12/01 08:17:30;;;;;;;6.35;2.78;;;3.10;99.90;;;;;;5056425;28;20195;-71
2022/12/01 08:19:57;;;;;;;4.63;2.83;;;3.10;99.90;;;;;;5054272;28;20207;-71
2022/12/01 08:22:25;;;;;;;5.40;3.03;;;3.00;99.90;;;;;;5059175;28;20294;-71
2022/12/01 08:24:52;;;;;;;15.05;4.10;;;3.00;99.90;;;;;;5047555;28;20208;-71
2022/12/01 08:27:19;;;;;;;10.23;3.38;;;3.10;99.90;;;;;;5048683;28;20202;-71
2022/12/01 08:29:45;;;;;;;7.63;2.47;;;3.20;99.90;;;;;;5048631;28;20239;-71
2022/12/01 08:32:12;;;;;;;3.42;2.85;;;3.20;99.90;;;;;;5055900;28;20210;-71
2022/12/01 08:34:40;;;;;;;5.03;2.85;;;3.20;99.90;;;;;;5053399;28;20200;-71
2022/12/01 08:37:07;;;;;;;6.93;3.65;;;3.20;99.90;;;;;;5055174;28;20202;-72
2022/12/01 08:39:34;;;;;;;4.35;1.85;;;3.30;99.90;;;;;;5056982;28;20202;-71
2022/12/01 08:42:01;;;;;;;3.75;2.70;;;3.30;99.90;;;;;;5054841;28;20219;-71
2022/12/01 08:44:28;;;;;;;2.60;1.55;;;3.20;99.90;;;;;;5051984;28;20604;-71
2022/12/01 08:46:54;;;;;;;2.08;1.58;;;3.10;99.90;;;;;;5056034;28;20219;-71
2022/12/01 08:49:21;;;;;;;5.70;4.03;;;3.10;99.90;;;;;;5056529;28;20194;-71
2022/12/01 08:51:50;;;;;;;2.90;2.65;;;3.10;99.90;;;;;;5055602;28;20195;-71
2022/12/01 08:54:16;;;;;;;3.70;3.33;;;3.00;99.90;;;;;;5047648;28;20219;-71
2022/12/01 08:56:45;;;;;;;4.32;3.90;;;3.10;99.90;;;;;;5056649;28;20199;-71
2022/12/01 08:59:12;;;;;;;1.40;1.30;;;3.20;99.90;;;;;;5052674;28;20206;-71
2022/12/01 09:01:52;;;;;;;4.97;2.03;;;3.10;99.90;;;;;;5061945;28;20192;-71
2022/12/01 09:04:20;;;;;;;4.68;2.17;;;3.10;99.90;;;;;;5047939;28;20203;-71
2022/12/01 09:06:50;;;;;;;3.65;2.85;;;3.30;99.90;;;;;;5047016;28;20728;-72
2022/12/01 09:09:18;;;;;;;2.85;2.53;;;3.30;99.90;;;;;;5047490;28;20274;-71
2022/12/01 09:11:46;;;;;;;10.02;4.75;;;3.30;99.90;;;;;;5057839;28;20292;-71
2022/12/01 09:14:15;;;;;;;5.45;3.22;;;3.10;99.90;;;;;;5047612;28;20208;-71
2022/12/01 09:16:43;;;;;;;6.80;3.95;;;3.10;99.90;;;;;;5055352;28;20195;-71
2022/12/01 09:19:10;;;;;;;9.70;4.72;;;2.90;99.90;;;;;;5060219;28;20203;-71
2022/12/01 09:21:37;;;;;;;4.30;2.05;;;2.80;99.90;;;;;;5056853;28;20220;-71
2022/12/01 09:24:06;;;;;;;7.55;2.92;;;2.80;99.90;;;;;;5058206;28;20203;-71
2022/12/01 09:26:34;;;;;;;1.73;1.63;;;3.00;99.90;;;;;;5057248;28;20224;-71
2022/12/01 09:29:05;;;;;;;5.55;2.20;;;3.20;99.90;;;;;;5053943;28;20690;-71
2022/12/01 09:31:32;;;;;;;6.65;3.70;;;3.20;99.90;;;;;;5054095;28;20815;-71
2022/12/01 09:34:01;;;;;;;6.97;3.22;;;3.20;99.90;;;;;;5062696;28;20198;-72
2022/12/01 09:36:29;;;;;;;11.57;4.03;;;3.30;99.90;;;;;;5061128;28;20227;-75
2022/12/01 09:38:56;;;;;;;8.05;4.00;;;3.30;99.90;;;;;;5057385;28;20573;-71
2022/12/01 09:41:27;;;;;;;3.28;2.55;;;3.30;99.90;;;;;;5054747;28;20370;-72
2022/12/01 09:44:04;;;;;;;5.75;2.00;;;3.40;99.90;;;;;;5061854;28;20199;-71
2022/12/01 09:46:35;;;;;;;2.88;1.90;;;3.40;99.90;;;;;;5050457;28;20285;-72
2022/12/01 09:49:03;;;;;;;14.43;5.38;;;3.50;99.90;;;;;;5061811;28;20214;-71
2022/12/01 09:51:34;;;;;;;1.58;1.25;;;3.40;99.90;;;;;;5065058;28;20203;-71
2022/12/01 09:54:02;;;;;;;3.75;2.58;;;3.40;99.90;;;;;;5067191;28;20217;-71
2022/12/01 09:56:33;;;;;;;4.63;3.67;;;3.40;99.90;;;;;;5050241;28;20287;-71
2022/12/01 09:59:02;;;;;;;3.35;3.05;;;3.40;99.90;;;;;;5053629;28;20198;-71
2022/12/01 10:01:34;;;;;;;3.22;2.92;;;3.50;99.90;;;;;;5070405;28;20286;-71
2022/12/01 10:04:08;;;;;;;9.05;4.00;;;3.50;99.90;;;;;;5063429;28;20198;-72
2022/12/01 10:06:40;;;;;;;6.13;3.35;;;3.40;99.90;;;;;;5057193;28;20310;-71
2022/12/01 10:09:17;;;;;;;3.60;2.70;;;3.50;99.90;;;;;;5051919;28;20227;-71
2022/12/01 10:11:47;;;;;;;3.10;2.05;;;3.50;99.90;;;;;;5050974;28;20211;-72
2022/12/01 10:14:16;;;;;;;7.18;4.47;;;3.60;99.90;;;;;;5050043;28;20203;-73
2022/12/01 10:16:48;;;;;;;6.68;3.22;;;3.60;99.90;;;;;;5062124;28;20198;-72
2022/12/01 10:19:24;;;;;;;5.28;3.03;;;3.60;99.90;;;;;;5062735;28;20288;-72
2022/12/01 10:22:04;;;;;;;7.82;3.30;;;3.60;99.90;;;;;;5062145;28;20206;-71
2022/12/01 10:24:46;;;;;;;6.07;2.70;;;3.60;99.90;;;;;;5058501;28;20196;-72
2022/12/01 10:27:39;;;;;;;6.25;3.05;;;3.50;99.90;;;;;;5066754;28;20229;-72
2022/12/01 10:30:10;;;;;;;1.23;1.23;;;3.60;99.90;;;;;;5054898;28;20716;-73
2022/12/01 10:32:48;;;;;;;3.25;2.15;;;3.50;99.90;;;;;;5058146;28;20475;-73
2022/12/01 10:35:17;;;;;;;3.40;2.08;;;3.60;99.90;;;;;;5052362;28;20286;-74
2022/12/01 10:37:46;;;;;;;4.82;2.85;;;3.50;99.90;;;;;;5049846;28;20204;-73
2022/12/01 10:40:15;;;;;;;6.10;3.67;;;3.60;99.90;;;;;;5054915;28;20192;-73
2022/12/01 10:42:45;;;;;;;5.50;2.40;;;3.50;99.90;;;;;;5057047;28;20632;-73
2022/12/01 10:45:16;;;;;;;6.38;2.88;;;3.60;99.90;;;;;;5049244;28;20730;-73
2022/12/01 10:48:07;;;;;;;2.58;2.38;;;3.50;99.90;;;;;;5056452;28;20708;-73
2022/12/01 10:50:35;;;;;;;2.72;2.47;;;3.60;99.90;;;;;;5059772;28;20194;-72
2022/12/01 10:53:02;;;;;;;4.95;2.88;;;3.50;99.90;;;;;;5057783;28;20323;-74
2022/12/01 10:55:34;;;;;;;2.38;2.15;;;3.40;99.90;;;;;;5069224;28;20287;-72
2022/12/01 10:58:06;;;;;;;5.95;2.60;;;3.20;99.90;;;;;;5053921;28;20196;-72
2022/12/01 11:00:37;;;;;;;2.85;1.45;;;3.20;99.90;;;;;;5062980;28;20199;-73
2022/12/01 11:03:18;;;;;;;2.95;1.38;;;3.10;99.90;;;;;;5056389;28;20609;-73
2022/12/01 11:05:51;;;;;;;5.70;2.95;;;3.20;99.90;;;;;;5047911;28;20219;-72
2022/12/01 11:08:23;;;;;;;4.13;2.60;;;3.30;99.90;;;;;;5046927;28;20287;-73
2022/12/01 11:10:51;;;;;;;1.50;1.40;;;3.10;99.90;;;;;;5048742;28;20204;-73
2022/12/01 11:13:23;;;;;;;2.15;1.58;;;3.10;99.90;;;;;;5048053;28;20215;-72
2022/12/01 11:15:53;;;;;;;4.05;2.70;;;3.00;99.90;;;;;;5048827;28;20447;-73
2022/12/01 11:18:23;;;;;;;3.83;1.33;;;3.10;99.90;;;;;;5049606;28;20196;-72
2022/12/01 11:21:06;;;;;;;3.60;2.22;;;3.30;99.90;;;;;;5050634;28;20203;-72
2022/12/01 11:23:36;;;;;;;6.70;2.50;;;3.40;99.90;;;;;;5056213;28;20700;-72
2022/12/01 11:26:16;;;;;;;4.55;1.48;;;3.50;99.90;;;;;;5050395;28;20311;-72
2022/12/01 11:28:52;;;;;;;4.95;2.85;;;3.40;99.90;;;;;;5050322;28;20200;-72
2022/12/01 11:31:21;;;;;;;4.25;3.38;;;3.30;99.90;;;;;;5047121;28;20199;-72
2022/12/01 11:33:51;;;;;;;1.38;1.10;;;3.40;99.90;;;;;;5047594;28;20656;-72
2022/12/01 11:36:38;;;;;;;4.25;2.90;;;3.50;99.90;;;;;;5048256;28;20570;-72
2022/12/01 11:39:05;;;;;;;6.57;5.85;;;3.50;99.90;;;;;;5047888;28;20338;-72
2022/12/01 11:41:36;;;;;;;4.10;1.83;;;3.50;99.90;;;;;;5047818;28;20199;-73
2022/12/01 11:44:06;;;;;;;4.57;2.55;;;3.70;99.90;;;;;;5047737;28;20678;-73
2022/12/01 11:46:35;;;;;;;3.50;3.13;;;3.70;99.90;;;;;;5058690;28;20778;-71
2022/12/01 11:49:02;;;;;;;8.02;2.90;;;3.50;99.90;;;;;;5051628;28;20335;-70
2022/12/01 11:51:36;;;;;;;7.00;3.72;;;3.60;99.90;;;;;;5052495;28;20199;-70
2022/12/01 11:54:13;;;;;;;4.38;2.55;;;3.50;99.90;;;;;;5065456;28;20245;-71
2022/12/01 11:56:41;;;;;;;5.95;2.42;;;3.40;99.90;;;;;;5060442;28;20203;-70
2022/12/01 11:59:15;;;;;;;2.55;1.25;;;3.50;99.90;;;;;;5058515;28;20195;-72
2022/12/01 12:02:15;;;;;;;4.60;2.67;;;3.50;99.90;;;;;;5052208;28;20195;-70
2022/12/01 12:05:04;;;;;;;2.58;1.77;;;3.50;99.90;;;;;;5047086;28;20270;-71
2022/12/01 12:07:40;;;;;;;2.10;1.88;;;3.40;99.90;;;;;;5047711;28;20237;-72
2022/12/01 12:10:22;;;;;;;6.70;2.55;;;3.50;99.90;;;;;;5050684;28;20195;-70
2022/12/01 12:13:02;;;;;;;1.65;1.35;;;3.60;99.90;;;;;;5054754;28;20207;-70
2022/12/01 12:15:38;;;;;;;8.85;2.97;;;3.60;99.90;;;;;;5063874;28;20203;-71
2022/12/01 12:18:26;;;;;;;4.78;3.78;;;3.70;99.90;;;;;;5055335;28;20381;-72
2022/12/01 12:21:04;;;;;;;2.15;1.23;;;3.80;99.90;;;;;;5050422;28;20191;-70
2022/12/01 12:23:58;;;;;;;4.32;3.85;;;3.80;99.90;;;;;;5056676;28;20204;-73
2022/12/01 12:26:28;;;;;;;2.90;2.33;;;3.90;99.90;;;;;;5025836;28;20320;-71
2022/12/01 12:29:20;;;;;;;2.50;2.40;;;3.90;99.90;;;;;;5064509;28;20203;-73
2022/12/01 12:31:56;;;;;;;3.85;2.83;;;3.90;99.90;;;;;;5046389;28;20192;-70
2022/12/01 12:34:36;;;;;;;3.47;2.40;;;3.80;99.90;;;;;;5061321;28;20191;-72
2022/12/01 12:37:15;;;;;;;2.80;2.60;;;3.70;99.90;;;;;;5064348;28;20207;-70
2022/12/01 12:40:09;;;;;;;3.45;2.53;;;3.60;99.90;;;;;;5046850;28;20657;-70
2022/12/01 12:42:46;;;;;;;10.20;3.42;;;3.70;99.90;;;;;;5053191;28;20516;-72
2022/12/01 12:45:18;;;;;;;9.75;3.10;;;3.60;99.90;;;;;;5056119;28;20629;-70
2022/12/01 12:48:05;;;;;;;4.18;3.85;;;3.70;99.90;;;;;;5055394;28;20216;-70
2022/12/01 12:50:39;;;;;;;6.72;2.38;;;3.80;99.90;;;;;;5047310;28;20227;-71
2022/12/01 12:53:14;;;;;;;11.57;4.10;;;3.60;99.90;;;;;;5048871;28;20195;-70
2022/12/01 12:55:45;;;;;;;6.80;2.25;;;3.60;99.90;;;;;;5046188;28;20195;-70
2022/12/01 12:58:18;;;;;;;3.90;2.40;;;3.60;99.90;;;;;;5050880;28;20211;-72
2022/12/01 13:00:50;;;;;;;3.25;2.95;;;3.70;99.90;;;;;;5067232;28;20199;-70
2022/12/01 13:03:24;;;;;;;7.00;3.53;;;3.80;99.90;;;;;;5066384;28;20220;-72
2022/12/01 13:05:57;;;;;;;6.13;4.10;;;3.80;99.90;;;;;;5051624;28;20579;-70
2022/12/01 13:08:28;;;;;;;2.90;1.85;;;3.90;99.90;;;;;;5049664;28;20208;-71
2022/12/01 13:11:00;;;;;;;8.90;4.07;;;4.00;99.90;;;;;;5050917;28;20286;-71
2022/12/01 13:13:33;;;;;;;4.32;2.75;;;3.90;99.90;;;;;;5053063;28;20216;-70
2022/12/01 13:16:03;;;;;;;2.60;2.40;;;3.90;99.90;;;;;;5051323;28;20298;-71